createdAt,value
2023-05-14T00:00:34.999Z,97302.25
2023-05-14T00:03:37.516Z,97305.00
2023-05-14T00:06:39.311Z,97306.06
2023-05-14T00:09:40.785Z,97302.09
2023-05-14T00:12:42.263Z,97304.16
2023-05-14T00:15:44.434Z,97295.00
2023-05-14T00:18:45.982Z,97294.16
2023-05-14T00:21:48.101Z,97287.16
2023-05-14T00:24:49.576Z,97278.34
2023-05-14T00:27:51.007Z,97273.94
2023-05-14T00:30:52.439Z,97277.75
2023-05-14T00:33:53.866Z,97265.38
2023-05-14T00:36:55.329Z,97261.88
2023-05-14T00:39:56.947Z,97259.09
2023-05-14T00:42:58.361Z,97261.63
2023-05-14T00:46:00.764Z,97261.84
2023-05-14T00:49:02.328Z,97257.03
2023-05-14T00:52:04.121Z,97257.66
2023-05-14T00:55:06.573Z,97257.53
2023-05-14T00:58:11.254Z,97253.34
2023-05-14T01:01:15.107Z,97243.94
2023-05-14T01:04:16.983Z,97246.72
2023-05-14T01:07:34.639Z,97241.13
2023-05-14T01:11:03.855Z,97243.06
2023-05-14T01:14:31.285Z,97243.94
2023-05-14T01:17:35.995Z,97247.75
2023-05-14T01:20:37.504Z,97252.16
2023-05-14T01:23:38.911Z,97250.50
2023-05-14T01:26:40.947Z,97250.06
2023-05-14T01:29:49.600Z,97243.63
2023-05-14T01:32:54.817Z,97244.00
2023-05-14T01:35:56.471Z,97239.13
2023-05-14T01:38:59.395Z,97241.50
2023-05-14T01:42:02.035Z,97249.84
2023-05-14T01:45:03.975Z,97241.72
2023-05-14T01:48:06.140Z,97240.00
2023-05-14T01:51:07.588Z,97237.84
2023-05-14T01:54:09.024Z,97233.53
2023-05-14T01:57:10.417Z,97226.69
2023-05-14T02:00:12.317Z,97233.91
2023-05-14T02:03:17.036Z,97227.59
2023-05-14T02:06:20.880Z,97229.03
2023-05-14T02:09:24.240Z,97230.84
2023-05-14T02:12:26.191Z,97230.78
2023-05-14T02:15:27.684Z,97230.78
2023-05-14T02:18:29.154Z,97238.38
2023-05-14T02:21:30.749Z,97240.13
2023-05-14T02:24:32.173Z,97240.09
2023-05-14T02:27:33.898Z,97239.28
2023-05-14T02:30:35.305Z,97238.66
2023-05-14T02:33:36.747Z,97241.63
2023-05-14T02:36:38.961Z,97241.66
2023-05-14T02:39:40.424Z,97234.16
2023-05-14T02:42:41.878Z,97245.41
2023-05-14T02:45:43.491Z,97241.28
2023-05-14T02:48:45.320Z,97240.44
2023-05-14T02:51:46.783Z,97244.25
2023-05-14T02:54:48.164Z,97243.13
2023-05-14T02:57:49.936Z,97244.03
2023-05-14T03:00:51.456Z,97244.63
2023-05-14T03:03:53.196Z,97245.03
2023-05-14T03:06:54.608Z,97240.91
2023-05-14T03:09:56.389Z,97249.66
2023-05-14T03:12:57.957Z,97247.06
2023-05-14T03:15:59.414Z,97246.81
2023-05-14T03:19:00.945Z,97248.03
2023-05-14T03:22:02.668Z,97242.28
2023-05-14T03:25:04.481Z,97239.22
2023-05-14T03:28:05.945Z,97239.06
2023-05-14T03:31:07.768Z,97241.63
2023-05-14T03:34:09.331Z,97240.78
2023-05-14T03:37:11.064Z,97228.44
2023-05-14T03:40:12.673Z,97240.38
2023-05-14T03:43:14.247Z,97239.03
2023-05-14T03:46:16.197Z,97239.88
2023-05-14T03:49:17.725Z,97243.25
2023-05-14T03:52:19.263Z,97238.25
2023-05-14T03:55:21.347Z,97242.69
2023-05-14T03:58:22.768Z,97238.69
2023-05-14T04:01:24.290Z,97233.69
2023-05-14T04:04:25.858Z,97234.50
2023-05-14T04:07:27.305Z,97229.50
2023-05-14T04:10:28.896Z,97241.19
2023-05-14T04:13:30.443Z,97239.22
2023-05-14T04:16:31.993Z,97226.97
2023-05-14T04:19:33.533Z,97224.53
2023-05-14T04:22:35.003Z,97237.69
2023-05-14T04:25:36.541Z,97233.06
2023-05-14T04:28:37.920Z,97221.50
2023-05-14T04:31:39.660Z,97224.63
2023-05-14T04:34:41.475Z,97215.34
2023-05-14T04:37:42.892Z,97214.72
2023-05-14T04:40:44.412Z,97214.19
2023-05-14T04:43:47.058Z,97214.63
2023-05-14T04:46:48.524Z,97210.41
2023-05-14T04:49:49.978Z,97214.19
2023-05-14T04:52:51.542Z,97217.25
2023-05-14T04:55:53.962Z,97224.63
2023-05-14T04:58:55.456Z,97226.91
2023-05-14T05:01:57.222Z,97224.00
2023-05-14T05:04:58.658Z,97227.28
2023-05-14T05:08:00.133Z,97227.19
2023-05-14T05:11:01.590Z,97228.78
2023-05-14T05:14:03.127Z,97234.50
2023-05-14T05:17:04.839Z,97228.03
2023-05-14T05:20:09.542Z,97221.88
2023-05-14T05:23:11.247Z,97224.63
2023-05-14T05:26:12.715Z,97226.31
2023-05-14T05:29:14.150Z,97231.69
2023-05-14T05:32:15.863Z,97228.44
2023-05-14T05:35:17.338Z,97221.50
2023-05-14T05:38:18.765Z,97222.75
2023-05-14T05:41:20.436Z,97220.38
2023-05-14T05:44:21.819Z,97222.59
2023-05-14T05:47:23.393Z,97231.84
2023-05-14T05:50:26.409Z,97228.44
2023-05-14T05:53:27.874Z,97229.09
2023-05-14T05:56:29.270Z,97225.00
2023-05-14T05:59:30.877Z,97227.75
2023-05-14T06:02:32.656Z,97224.56
2023-05-14T06:05:34.403Z,97227.91
2023-05-14T06:08:35.886Z,97223.66
2023-05-14T06:11:37.279Z,97224.97
2023-05-14T06:14:38.688Z,97225.31
2023-05-14T06:17:40.227Z,97230.53
2023-05-14T06:20:41.807Z,97229.44
2023-05-14T06:23:43.264Z,97225.41
2023-05-14T06:26:44.769Z,97223.06
2023-05-14T06:29:46.176Z,97232.16
2023-05-14T06:32:47.592Z,97224.25
2023-05-14T06:35:49.043Z,97227.63
2023-05-14T06:38:50.486Z,97233.38
2023-05-14T06:41:51.909Z,97230.03
2023-05-14T06:44:53.436Z,97235.28
2023-05-14T06:47:55.456Z,97228.53
2023-05-14T06:50:56.995Z,97234.91
2023-05-14T06:53:58.420Z,97235.28
2023-05-14T06:56:59.946Z,97237.09
2023-05-14T07:00:03.188Z,97233.09
2023-05-14T07:03:05.313Z,97232.28
2023-05-14T07:06:06.957Z,97232.03
2023-05-14T07:09:08.380Z,97231.72
2023-05-14T07:12:09.832Z,97227.44
2023-05-14T07:15:12.167Z,97232.56
2023-05-14T07:18:13.614Z,97230.34
2023-05-14T07:21:15.188Z,97226.09
2023-05-14T07:24:16.595Z,97221.84
2023-05-14T07:27:18.168Z,97220.06
2023-05-14T07:30:19.639Z,97218.94
2023-05-14T07:33:21.458Z,97214.19
2023-05-14T07:36:23.032Z,97214.78
2023-05-14T07:39:24.452Z,97216.31
2023-05-14T07:42:35.800Z,97216.28
2023-05-14T07:45:41.581Z,97211.69
2023-05-14T07:48:43.111Z,97214.34
2023-05-14T07:51:44.651Z,97212.94
2023-05-14T07:54:46.031Z,97212.09
2023-05-14T07:57:47.470Z,97208.44
2023-05-14T08:00:48.968Z,97203.13
2023-05-14T08:03:50.747Z,97207.19
2023-05-14T08:06:52.262Z,97194.16
2023-05-14T08:09:53.744Z,97195.34
2023-05-14T08:12:55.618Z,97195.09
2023-05-14T08:15:57.085Z,97201.25
2023-05-14T08:18:58.531Z,97198.88
2023-05-14T08:21:59.947Z,97188.88
2023-05-14T08:25:03.381Z,97185.66
2023-05-14T08:28:04.997Z,97199.03
2023-05-14T08:31:06.565Z,97186.53
2023-05-14T08:34:08.044Z,97192.34
2023-05-14T08:37:09.580Z,97192.38
2023-05-14T08:40:12.250Z,97200.56
2023-05-14T08:43:19.936Z,97195.34
2023-05-14T08:46:23.922Z,97201.00
2023-05-14T08:49:32.328Z,97199.56
2023-05-14T08:52:34.957Z,97197.59
2023-05-14T08:55:37.553Z,97197.13
2023-05-14T08:58:39.055Z,97195.09
2023-05-14T09:01:47.519Z,97196.97
2023-05-14T09:04:54.170Z,97184.34
2023-05-14T09:07:55.782Z,97190.81
2023-05-14T09:10:57.239Z,97191.31
2023-05-14T09:13:58.740Z,97184.06
2023-05-14T09:17:00.272Z,97180.78
2023-05-14T09:20:01.963Z,97173.19
2023-05-14T09:23:03.467Z,97177.50
2023-05-14T09:26:05.995Z,97172.28
2023-05-14T09:29:07.750Z,97165.25
2023-05-14T09:32:10.782Z,97168.28
2023-05-14T09:35:19.603Z,97164.56
2023-05-14T09:38:21.032Z,97171.00
2023-05-14T09:41:22.985Z,97162.91
2023-05-14T09:44:25.387Z,97163.09
2023-05-14T09:47:26.929Z,97164.41
2023-05-14T09:50:28.586Z,97163.13
2023-05-14T09:53:30.556Z,97165.09
2023-05-14T09:56:36.316Z,97157.03
2023-05-14T09:59:37.904Z,97152.72
2023-05-14T10:02:42.229Z,97156.84
2023-05-14T10:05:44.939Z,97155.00
2023-05-14T10:08:48.466Z,97163.34
2023-05-14T10:11:54.111Z,97152.31
2023-05-14T10:15:01.245Z,97152.25
2023-05-14T10:18:10.132Z,97154.38
2023-05-14T10:21:12.916Z,97153.88
2023-05-14T10:24:14.892Z,97155.00
2023-05-14T10:27:17.337Z,97157.84
2023-05-14T10:30:22.956Z,97151.16
2023-05-14T10:33:24.622Z,97145.94
2023-05-14T10:36:26.074Z,97140.72
2023-05-14T10:39:53.743Z,97149.28
2023-05-14T10:42:59.116Z,97141.56
2023-05-14T10:46:00.993Z,97142.97
2023-05-14T10:49:02.781Z,97141.44
2023-05-14T10:52:07.251Z,97137.28
2023-05-14T10:55:10.239Z,97135.97
2023-05-14T10:58:12.141Z,97124.25
2023-05-14T11:01:13.904Z,97128.75
2023-05-14T11:04:19.335Z,97121.06
2023-05-14T11:07:27.830Z,97119.19
2023-05-14T11:10:30.125Z,97113.81
2023-05-14T11:13:32.178Z,97119.53
2023-05-14T11:16:34.066Z,97117.00
2023-05-14T11:19:36.020Z,97109.47
2023-05-14T11:22:39.745Z,97101.06
2023-05-14T11:25:41.627Z,97102.91
2023-05-14T11:28:44.463Z,97089.84
2023-05-14T11:31:46.137Z,97091.16
2023-05-14T11:34:47.792Z,97086.97
2023-05-14T11:37:53.752Z,97087.00
2023-05-14T11:40:56.426Z,97088.69
2023-05-14T11:43:58.484Z,97089.16
2023-05-14T11:47:01.930Z,97071.81
2023-05-14T11:50:03.598Z,97078.34
2023-05-14T11:53:05.026Z,97076.91
2023-05-14T11:56:08.902Z,97068.66
2023-05-14T11:59:11.819Z,97061.47
2023-05-14T12:02:15.400Z,97071.56
2023-05-14T12:05:16.904Z,97057.88
2023-05-14T12:08:37.554Z,97057.09
2023-05-14T12:11:38.971Z,97052.63
2023-05-14T12:14:42.723Z,97047.69
2023-05-14T12:17:51.805Z,97056.09
2023-05-14T12:20:53.962Z,97053.59
2023-05-14T12:23:59.918Z,97051.41
2023-05-14T12:27:02.395Z,97038.94
2023-05-14T12:30:20.470Z,97040.31
2023-05-14T12:33:23.832Z,97029.38
2023-05-14T12:36:25.559Z,97038.09
2023-05-14T12:39:26.970Z,97029.34
2023-05-14T12:42:28.394Z,97038.03
2023-05-14T12:45:30.550Z,97031.78
2023-05-14T12:48:31.988Z,97027.16
2023-05-14T12:51:33.870Z,97018.28
2023-05-14T12:54:35.398Z,97024.16
2023-05-14T12:57:38.775Z,97017.13
2023-05-14T13:00:40.698Z,97016.50
2023-05-14T13:03:42.214Z,97015.31
2023-05-14T13:06:43.800Z,97008.19
2023-05-14T13:09:45.302Z,97008.41
2023-05-14T13:12:46.772Z,97007.19
2023-05-14T13:15:48.568Z,96997.13
2023-05-14T13:18:50.074Z,96995.19
2023-05-14T13:21:51.546Z,96991.31
2023-05-14T13:24:53.056Z,96986.06
2023-05-14T13:27:54.998Z,96993.91
2023-05-14T13:31:08.439Z,96991.38
2023-05-14T13:34:10.246Z,96981.81
2023-05-14T13:37:11.751Z,96976.56
2023-05-14T13:40:13.412Z,96968.69
2023-05-14T13:43:16.803Z,96966.47
2023-05-14T13:46:18.271Z,96959.44
2023-05-14T13:49:19.804Z,96955.59
2023-05-14T13:52:21.672Z,96955.78
2023-05-14T13:55:23.277Z,96960.03
2023-05-14T13:58:25.760Z,96948.53
2023-05-14T14:01:27.378Z,96949.19
2023-05-14T14:04:29.017Z,96951.97
2023-05-14T14:07:30.569Z,96942.66
2023-05-14T14:10:32.070Z,96947.06
2023-05-14T14:13:33.567Z,96942.06
2023-05-14T14:16:35.126Z,96931.50
2023-05-14T14:19:36.699Z,96943.34
2023-05-14T14:22:38.179Z,96937.19
2023-05-14T14:25:39.862Z,96935.88
2023-05-14T14:28:41.448Z,96932.59
2023-05-14T14:31:43.722Z,96933.28
2023-05-14T14:34:45.225Z,96935.50
2023-05-14T14:37:50.752Z,96945.00
2023-05-14T14:40:52.240Z,96936.81
2023-05-14T14:43:53.888Z,96933.22
2023-05-14T14:46:55.343Z,96930.31
2023-05-14T14:49:57.206Z,96939.16
2023-05-14T14:52:58.613Z,96930.25
2023-05-14T14:56:03.208Z,96921.91
2023-05-14T14:59:04.645Z,96929.66
2023-05-14T15:02:06.515Z,96913.78
2023-05-14T15:05:08.377Z,96911.66
2023-05-14T15:08:10.369Z,96916.53
2023-05-14T15:11:11.898Z,96921.16
2023-05-14T15:14:13.365Z,96911.13
2023-05-14T15:17:14.860Z,96922.25
2023-05-14T15:20:16.384Z,96926.16
2023-05-14T15:23:18.115Z,96927.19
2023-05-14T15:26:19.518Z,96928.03
2023-05-14T15:29:21.310Z,96931.56
2023-05-14T15:32:22.801Z,96921.72
2023-05-14T15:35:24.415Z,96922.97
2023-05-14T15:38:26.275Z,96921.34
2023-05-14T15:41:28.654Z,96927.38
2023-05-14T15:44:30.208Z,96918.97
2023-05-14T15:47:32.069Z,96925.28
2023-05-14T15:50:33.614Z,96923.97
2023-05-14T15:53:35.127Z,96927.19
2023-05-14T15:56:36.546Z,96934.84
2023-05-14T15:59:37.992Z,96930.25
2023-05-14T16:02:39.999Z,96932.63
2023-05-14T16:05:42.661Z,96935.75
2023-05-14T16:08:44.153Z,96936.19
2023-05-14T16:11:45.657Z,96931.34
2023-05-14T16:14:47.223Z,96936.91
2023-05-14T16:17:48.737Z,96931.59
2023-05-14T16:20:50.174Z,96934.47
2023-05-14T16:23:51.636Z,96927.63
2023-05-14T16:26:53.237Z,96936.78
2023-05-14T16:29:54.642Z,96937.28
2023-05-14T16:32:56.110Z,96928.09
2023-05-14T16:35:57.577Z,96933.13
2023-05-14T16:39:07.112Z,96921.41
2023-05-14T16:42:09.242Z,96929.25
2023-05-14T16:45:11.235Z,96924.03
2023-05-14T16:48:12.673Z,96926.25
2023-05-14T16:51:14.440Z,96923.22
2023-05-14T16:54:16.107Z,96926.22
2023-05-14T16:57:17.514Z,96924.03
2023-05-14T17:00:19.009Z,96915.00
2023-05-14T17:03:20.521Z,96920.56
2023-05-14T17:06:21.900Z,96927.78
2023-05-14T17:09:23.623Z,96923.94
2023-05-14T17:12:26.314Z,96926.25
2023-05-14T17:15:28.030Z,96925.06
2023-05-14T17:18:29.879Z,96912.47
2023-05-14T17:21:31.438Z,96924.69
2023-05-14T17:24:32.986Z,96918.00
2023-05-14T17:27:34.513Z,96920.00
2023-05-14T17:30:35.955Z,96924.84
2023-05-14T17:33:37.439Z,96919.84
2023-05-14T17:36:39.448Z,96931.25
2023-05-14T17:39:40.917Z,96936.28
2023-05-14T17:42:43.477Z,96934.94
2023-05-14T17:45:54.003Z,96940.81
2023-05-14T17:48:58.113Z,96935.31
2023-05-14T17:51:59.508Z,96936.63
2023-05-14T17:55:00.983Z,96940.31
2023-05-14T17:58:02.455Z,96938.84
2023-05-14T18:01:04.584Z,96937.34
2023-05-14T18:04:06.263Z,96939.69
2023-05-14T18:07:08.421Z,96944.66
2023-05-14T18:10:10.103Z,96941.66
2023-05-14T18:13:11.646Z,96944.31
2023-05-14T18:16:13.276Z,96952.84
2023-05-14T18:19:14.954Z,96955.00
2023-05-14T18:22:16.520Z,96954.31
2023-05-14T18:25:18.100Z,96965.00
2023-05-14T18:28:21.268Z,96968.97
2023-05-14T18:31:22.876Z,96960.59
2023-05-14T18:34:24.562Z,96960.91
2023-05-14T18:37:26.170Z,96962.44
2023-05-14T18:40:27.682Z,96958.88
2023-05-14T18:43:29.203Z,96956.38
2023-05-14T18:46:31.073Z,96949.34
2023-05-14T18:49:32.658Z,96959.03
2023-05-14T18:52:34.481Z,96957.75
2023-05-14T18:55:36.879Z,96955.44
2023-05-14T18:58:38.489Z,96957.72
2023-05-14T19:01:40.014Z,96963.31
2023-05-14T19:04:51.646Z,96965.22
2023-05-14T19:07:53.627Z,96967.91
2023-05-14T19:10:55.182Z,96973.81
2023-05-14T19:13:56.957Z,96980.91
2023-05-14T19:16:58.871Z,96978.38
2023-05-14T19:20:00.387Z,96978.38
2023-05-14T19:23:01.979Z,96982.97
2023-05-14T19:26:04.040Z,96984.75
2023-05-14T19:29:06.006Z,96992.09
2023-05-14T19:32:07.905Z,96990.50
2023-05-14T19:35:09.652Z,96983.72
2023-05-14T19:38:11.253Z,96984.75
2023-05-14T19:41:12.938Z,96991.81
2023-05-14T19:44:14.555Z,96989.69
2023-05-14T19:47:16.255Z,96991.81
2023-05-14T19:50:17.960Z,96995.31
2023-05-14T19:53:19.531Z,96999.47
2023-05-14T19:56:21.626Z,96997.16
2023-05-14T19:59:23.720Z,96998.00
2023-05-14T20:02:25.444Z,97002.84
2023-05-14T20:05:29.912Z,96997.09
2023-05-14T20:08:31.755Z,96997.25
2023-05-14T20:11:33.410Z,97000.50
2023-05-14T20:14:35.047Z,97003.53
2023-05-14T20:17:38.307Z,97008.81
2023-05-14T20:20:40.023Z,96996.56
2023-05-14T20:23:41.511Z,96992.06
2023-05-14T20:26:43.191Z,96992.31
2023-05-14T20:29:46.569Z,96992.66
2023-05-14T20:32:48.097Z,96982.34
2023-05-14T20:35:49.913Z,96980.31
2023-05-14T20:38:52.750Z,96977.59
2023-05-14T20:41:54.279Z,96974.53
2023-05-14T20:44:55.930Z,96981.47
2023-05-14T20:47:57.506Z,96970.84
2023-05-14T20:50:58.983Z,96970.47
2023-05-14T20:54:00.736Z,96976.44
2023-05-14T20:57:02.229Z,96972.03
2023-05-14T21:00:08.013Z,96978.56
2023-05-14T21:03:09.853Z,96971.72
2023-05-14T21:06:11.567Z,96983.31
2023-05-14T21:09:12.983Z,96983.88
2023-05-14T21:12:14.367Z,96988.16
2023-05-14T21:15:15.908Z,96976.72
2023-05-14T21:18:17.409Z,96992.44
2023-05-14T21:21:18.862Z,96981.63
2023-05-14T21:24:20.433Z,96979.91
2023-05-14T21:27:22.283Z,96986.75
2023-05-14T21:30:23.732Z,96981.56
2023-05-14T21:33:25.252Z,96981.06
2023-05-14T21:36:27.001Z,96981.22
2023-05-14T21:39:28.497Z,96975.06
2023-05-14T21:42:29.897Z,96986.56
2023-05-14T21:45:31.343Z,96984.34
2023-05-14T21:48:33.016Z,96983.19
2023-05-14T21:51:34.627Z,96975.91
2023-05-14T21:54:36.094Z,96975.38
2023-05-14T21:57:37.575Z,96980.22
2023-05-14T22:00:38.978Z,96981.81
2023-05-14T22:03:40.481Z,96987.88
2023-05-14T22:06:42.158Z,96985.44
2023-05-14T22:09:43.623Z,96981.91
2023-05-14T22:12:45.797Z,96984.41
2023-05-14T22:15:47.421Z,96982.75
2023-05-14T22:18:49.717Z,96981.00
2023-05-14T22:21:51.128Z,96974.38
2023-05-14T22:24:52.536Z,96976.47
2023-05-14T22:27:53.983Z,96970.19
2023-05-14T22:30:56.452Z,96982.41
2023-05-14T22:33:57.968Z,96978.97
2023-05-14T22:37:00.224Z,96973.69
2023-05-14T22:40:04.597Z,96970.03
2023-05-14T22:43:05.986Z,96974.13
2023-05-14T22:46:07.478Z,96970.19
2023-05-14T22:49:08.887Z,96959.94
2023-05-14T22:52:10.368Z,96958.38
2023-05-14T22:55:11.786Z,96972.56
2023-05-14T22:58:13.245Z,96960.94
2023-05-14T23:01:14.769Z,96954.75
2023-05-14T23:04:16.199Z,96954.66
2023-05-14T23:07:17.622Z,96954.66
2023-05-14T23:10:19.156Z,96953.66
2023-05-14T23:13:20.624Z,96942.19
2023-05-14T23:16:22.051Z,96942.56
2023-05-14T23:19:23.516Z,96944.22
2023-05-14T23:22:25.070Z,96948.75
2023-05-14T23:25:26.586Z,96947.78
2023-05-14T23:28:28.174Z,96955.16
2023-05-14T23:31:29.928Z,96946.66
2023-05-14T23:34:31.359Z,96930.53
2023-05-14T23:37:33.618Z,96934.56
2023-05-14T23:40:35.183Z,96942.41
2023-05-14T23:43:36.883Z,96941.03
2023-05-14T23:46:38.457Z,96936.28
2023-05-14T23:49:40.722Z,96932.78
2023-05-14T23:52:42.170Z,96930.16
2023-05-14T23:55:43.704Z,96930.38
2023-05-14T23:58:45.111Z,96926.44
